»·PEaware :: UAL576 KPDX-KMFR

UAL576 :: KPDX-KMFR

FLIGHT INFORMATION

Flight Status: Arrived
Operator:
United Airlines
More flights by this operator :: More flights under this callsign
Pilot: Anonymous 8274 (8274)
Aircraft: BOEING 737-300
(B733)
More flights by this aircraft type
Origin: KPDX Portland Intl
United States
Destination: KMFR Rogue Valley Intl-Medford
United States
More flights between these airports :: More routes between these airports
Route: MINNE5 MINNE HISKU Q5 HARPR
File this flight plan on PilotEdge
Remarks:
Altitude:
(Current/Filed)
31,000ft
Speed:
(Current/Filed)
460kts
Departed: 10-Jul-18 06:44 PM
Arrived: 10-Jul-18 07:30 PM
Distance/Time
Traveled:
194nm/0:46
Distance/Time
To Go:
Arrived

Flight Plot

Page will automatically refresh every two minutes.

Flight plan parsing failed; only flown route is shown


Map Options




Map Legend


Flown Route
Filed Route
Departure Airport
Arrival Airport
Navaid (VOR, NDB)
Fix

Horizontal Profiles

Position Reports

Time Latitude Longitude Heading Altitude Ground
Speed
10-Jul-18 18:14 45.590512 -122.595035 28 36ft 0kts
10-Jul-18 18:15 45.590512 -122.595035 28 36ft 0kts
10-Jul-18 18:16 45.590512 -122.595035 28 36ft 0kts
10-Jul-18 18:17 45.590512 -122.595035 28 36ft 0kts
10-Jul-18 18:18 45.590512 -122.595035 28 36ft 0kts
10-Jul-18 18:19 45.590512 -122.595035 28 36ft 0kts
10-Jul-18 18:20 45.590512 -122.595035 28 36ft 0kts
10-Jul-18 18:21 45.590512 -122.595035 28 36ft 0kts
10-Jul-18 18:22 45.590512 -122.595035 28 36ft 0kts
10-Jul-18 18:23 45.590512 -122.595035 28 36ft 0kts
10-Jul-18 18:24 45.590512 -122.595035 28 36ft 0kts
10-Jul-18 18:25 45.590512 -122.595035 28 36ft 0kts
10-Jul-18 18:26 45.590512 -122.595035 28 36ft 0kts
10-Jul-18 18:27 45.590512 -122.595035 28 36ft 0kts
10-Jul-18 18:28 45.590511 -122.595036 28 36ft 0kts
10-Jul-18 18:29 45.590050 -122.595403 15 36ft 2kts
10-Jul-18 18:30 45.589764 -122.595182 298 36ft 0kts
10-Jul-18 18:31 45.589764 -122.595182 298 36ft 0kts
10-Jul-18 18:32 45.589764 -122.595182 298 36ft 0kts
10-Jul-18 18:33 45.590619 -122.597375 298 36ft 14kts
10-Jul-18 18:34 45.590983 -122.598261 309 36ft 0kts
10-Jul-18 18:35 45.590983 -122.598261 309 36ft 0kts
10-Jul-18 18:36 45.592648 -122.598028 28 36ft 12kts
10-Jul-18 18:37 45.592600 -122.593166 119 36ft 17kts
10-Jul-18 18:38 45.589968 -122.586461 118 36ft 22kts
10-Jul-18 18:39 45.586533 -122.577631 119 36ft 28kts
10-Jul-18 18:40 45.582808 -122.568067 118 36ft 15kts
10-Jul-18 18:41 45.582715 -122.567475 75 36ft 0kts
10-Jul-18 18:42 45.582715 -122.567475 75 36ft 0kts
10-Jul-18 18:43 45.582715 -122.567475 75 36ft 0kts
10-Jul-18 18:44 45.583368 -122.566923 352 36ft 10kts
10-Jul-18 18:45 45.593129 -122.591478 299 221ft 149kts
10-Jul-18 18:46 45.612313 -122.646477 290 1852ft 190kts
10-Jul-18 18:47 45.638460 -122.724301 301 4295ft 240kts
10-Jul-18 18:48 45.671529 -122.815282 273 7023ft 274kts
10-Jul-18 18:49 45.643862 -122.916549 214 9994ft 293kts
10-Jul-18 18:50 45.552759 -122.931301 184 11425ft 362kts
10-Jul-18 18:51 45.451524 -122.942185 186 14321ft 369kts
10-Jul-18 18:52 45.348719 -122.954089 186 16788ft 380kts
10-Jul-18 18:53 45.242544 -122.966389 187 19086ft 390kts
10-Jul-18 18:54 45.132898 -122.965802 181 21170ft 403kts
10-Jul-18 18:55 45.019997 -122.961813 181 23038ft 413kts
10-Jul-18 18:56 44.905128 -122.957852 181 23221ft 418kts
10-Jul-18 18:57 44.793421 -122.954000 181 23208ft 415kts
10-Jul-18 18:58 44.678635 -122.950077 181 23464ft 418kts
10-Jul-18 18:59 44.561814 -122.946101 181 25151ft 428kts
10-Jul-18 19:00 44.442489 -122.942368 181 26619ft 439kts
10-Jul-18 19:01 44.319959 -122.938607 181 27999ft 449kts
10-Jul-18 19:02 44.196528 -122.934776 181 29731ft 446kts
10-Jul-18 19:03 44.073700 -122.930994 181 31131ft 446kts
10-Jul-18 19:04 43.949946 -122.927196 181 31187ft 447kts
10-Jul-18 19:05 43.829814 -122.923543 181 31186ft 447kts
10-Jul-18 19:06 43.706638 -122.919852 181 31185ft 447kts
10-Jul-18 19:07 43.583317 -122.911915 179 31183ft 448kts
10-Jul-18 19:08 43.459605 -122.902717 179 30859ft 440kts
10-Jul-18 19:09 43.336587 -122.893488 179 27339ft 447kts
10-Jul-18 19:10 43.216963 -122.883780 179 25148ft 422kts
10-Jul-18 19:11 43.103650 -122.873796 179 22861ft 403kts
10-Jul-18 19:12 42.991966 -122.863969 179 20826ft 398kts
10-Jul-18 19:13 42.887602 -122.854895 179 18980ft 394kts
10-Jul-18 19:14 42.784406 -122.857630 210 17294ft 371kts
10-Jul-18 19:15 42.710823 -122.952106 219 15257ft 359kts
10-Jul-18 19:16 42.620152 -122.965814 140 13080ft 372kts
10-Jul-18 19:17 42.560386 -122.858426 126 10840ft 340kts
10-Jul-18 19:18 42.509040 -122.763943 126 9969ft 276kts
10-Jul-18 19:19 42.462079 -122.677996 126 8908ft 286kts
10-Jul-18 19:20 42.416113 -122.594075 125 7355ft 268kts
10-Jul-18 19:21 42.367001 -122.527345 154 7318ft 250kts
10-Jul-18 19:22 42.300823 -122.510586 193 7286ft 246kts
10-Jul-18 19:23 42.241084 -122.549941 226 7316ft 228kts
10-Jul-18 19:24 42.213442 -122.618441 259 6223ft 206kts
10-Jul-18 19:25 42.218931 -122.690894 288 5069ft 196kts
10-Jul-18 19:26 42.239830 -122.754262 302 4049ft 183kts
10-Jul-18 19:27 42.269340 -122.806565 316 3055ft 178kts
10-Jul-18 19:28 42.306531 -122.837347 338 2378ft 139kts
10-Jul-18 19:29 42.342353 -122.856264 338 1804ft 143kts
10-Jul-18 19:30 42.376938 -122.874301 339 1322ft 87kts
10-Jul-18 19:31 42.380426 -122.877410 248 1322ft 0kts
10-Jul-18 19:32 42.380111 -122.877580 164 1322ft 11kts
10-Jul-18 19:33 42.372322 -122.873492 158 1322ft 35kts
10-Jul-18 19:34 42.369004 -122.873439 247 1322ft 0kts

Navigation Log

Ident Type
Flight plan parsing failed, navigation log unavailable